sensor_id;sensor_type;location;lat;lon;timestamp;pressure;altitude;pressure_sealevel;temperature
68342;BMP280;55668;52.310;21.066;2023-03-23T00:25:23;100090.0;;;9.4
68342;BMP280;55668;52.310;21.066;2023-03-23T01:13:15;100070.0;;;9.3
68342;BMP280;55668;52.310;21.066;2023-03-23T01:27:16;100050.0;;;9.4
68342;BMP280;55668;52.310;21.066;2023-03-23T02:13:06;100030.0;;;9.3
68342;BMP280;55668;52.310;21.066;2023-03-23T02:43:44;100000.0;;;9.2
68342;BMP280;55668;52.310;21.066;2023-03-23T03:46:04;100020.0;;;9.1
68342;BMP280;55668;52.310;21.066;2023-03-23T04:00:07;100010.0;;;9.0
68342;BMP280;55668;52.310;21.066;2023-03-23T04:31:21;100000.0;;;8.9
68342;BMP280;55668;52.310;21.066;2023-03-23T05:18:13;99970.0;;;9.0
68342;BMP280;55668;52.310;21.066;2023-03-23T05:32:52;99980.0;;;9.1
68342;BMP280;55668;52.310;21.066;2023-03-23T05:48:05;99990.0;;;9.3
68342;BMP280;55668;52.310;21.066;2023-03-23T06:03:43;99990.0;;;9.5
68342;BMP280;55668;52.310;21.066;2023-03-23T06:19:25;100000.0;;;9.9
68342;BMP280;55668;52.310;21.066;2023-03-23T06:36:04;100000.0;;;10.3
68342;BMP280;55668;52.310;21.066;2023-03-23T06:49:44;100000.0;;;10.9
68342;BMP280;55668;52.310;21.066;2023-03-23T07:07:51;99990.0;;;11.2
68342;BMP280;55668;52.310;21.066;2023-03-23T07:22:05;100010.0;;;12.0
68342;BMP280;55668;52.310;21.066;2023-03-23T07:35:20;100020.0;;;13.0
68342;BMP280;55668;52.310;21.066;2023-03-23T07:54:38;100010.0;;;13.6
68342;BMP280;55668;52.310;21.066;2023-03-23T08:07:08;100010.0;;;14.2
68342;BMP280;55668;52.310;21.066;2023-03-23T08:21:14;100000.0;;;14.4
68342;BMP280;55668;52.310;21.066;2023-03-23T08:43:53;99960.0;;;14.5
68342;BMP280;55668;52.310;21.066;2023-03-23T09:12:19;99980.0;;;14.3
68342;BMP280;55668;52.310;21.066;2023-03-23T09:23:31;99970.0;;;14.4
68342;BMP280;55668;52.310;21.066;2023-03-23T09:40:44;99960.0;;;14.5
68342;BMP280;55668;52.310;21.066;2023-03-23T09:55:28;99930.0;;;14.9
68342;BMP280;55668;52.310;21.066;2023-03-23T10:14:00;99920.0;;;15.2
68342;BMP280;55668;52.310;21.066;2023-03-23T10:31:03;99900.0;;;15.8
68342;BMP280;55668;52.310;21.066;2023-03-23T10:41:31;99890.0;;;16.3
68342;BMP280;55668;52.310;21.066;2023-03-23T11:12:32;99890.0;;;17.1
68342;BMP280;55668;52.310;21.066;2023-03-23T11:43:28;99850.0;;;17.6
68342;BMP280;55668;52.310;21.066;2023-03-23T11:57:27;99820.0;;;18.1
68342;BMP280;55668;52.310;21.066;2023-03-23T12:12:38;99800.0;;;18.4
68342;BMP280;55668;52.310;21.066;2023-03-23T12:43:37;99780.0;;;18.7
68342;BMP280;55668;52.310;21.066;2023-03-23T12:58:44;99780.0;;;18.4
68342;BMP280;55668;52.310;21.066;2023-03-23T13:14:10;99770.0;;;18.5
68342;BMP280;55668;52.310;21.066;2023-03-23T13:30:16;99760.0;;;18.3
68342;BMP280;55668;52.310;21.066;2023-03-23T13:43:50;99770.0;;;18.0
68342;BMP280;55668;52.310;21.066;2023-03-23T14:14:40;99790.0;;;17.7
68342;BMP280;55668;52.310;21.066;2023-03-23T14:31:21;99820.0;;;17.4
68342;BMP280;55668;52.310;21.066;2023-03-23T14:45:58;99830.0;;;17.2
68342;BMP280;55668;52.310;21.066;2023-03-23T15:00:53;99850.0;;;16.9
68342;BMP280;55668;52.310;21.066;2023-03-23T15:16:59;99850.0;;;16.7
68342;BMP280;55668;52.310;21.066;2023-03-23T15:36:31;99850.0;;;16.6
68342;BMP280;55668;52.310;21.066;2023-03-23T15:46:47;99860.0;;;16.4
68342;BMP280;55668;52.310;21.066;2023-03-23T16:04:32;99880.0;;;16.2
68342;BMP280;55668;52.310;21.066;2023-03-23T16:19:00;99900.0;;;16.1
68342;BMP280;55668;52.310;21.066;2023-03-23T16:50:44;99930.0;;;15.7
68342;BMP280;55668;52.310;21.066;2023-03-23T17:05:54;99930.0;;;15.5
68342;BMP280;55668;52.310;21.066;2023-03-23T17:21:33;99950.0;;;15.3
68342;BMP280;55668;52.310;21.066;2023-03-23T17:34:59;99940.0;;;15.1
68342;BMP280;55668;52.310;21.066;2023-03-23T17:50:46;99980.0;;;14.9
68342;BMP280;55668;52.310;21.066;2023-03-23T18:05:56;100000.0;;;14.8
68342;BMP280;55668;52.310;21.066;2023-03-23T18:52:15;100000.0;;;14.5
68342;BMP280;55668;52.310;21.066;2023-03-23T19:21:44;99980.0;;;14.4
68342;BMP280;55668;52.310;21.066;2023-03-23T19:37:40;99990.0;;;14.3
68342;BMP280;55668;52.310;21.066;2023-03-23T20:07:47;99970.0;;;14.4
68342;BMP280;55668;52.310;21.066;2023-03-23T20:54:01;99970.0;;;14.3
68342;BMP280;55668;52.310;21.066;2023-03-23T21:14:06;99980.0;;;14.2
68342;BMP280;55668;52.310;21.066;2023-03-23T21:25:39;99970.0;;;14.1
68342;BMP280;55668;52.310;21.066;2023-03-23T21:44:34;99980.0;;;14.3
68342;BMP280;55668;52.310;21.066;2023-03-23T21:55:41;99990.0;;;14.2
68342;BMP280;55668;52.310;21.066;2023-03-23T22:11:32;100000.0;;;14.1
68342;BMP280;55668;52.310;21.066;2023-03-23T22:26:55;100000.0;;;13.8
68342;BMP280;55668;52.310;21.066;2023-03-23T22:41:27;100010.0;;;13.7
68342;BMP280;55668;52.310;21.066;2023-03-23T22:56:55;100020.0;;;13.5
68342;BMP280;55668;52.310;21.066;2023-03-23T23:27:58;100020.0;;;13.4
68342;BMP280;55668;52.310;21.066;2023-03-23T23:43:24;100030.0;;;13.2
68342;BMP280;55668;52.310;21.066;2023-03-23T23:58:25;100040.0;;;13.1
